Terminal Aerodrome Forecast
Issued by NWS Detroit/Pontiac, MI

Home | Current Version | Previous Version | Text Only | Print | Product List | Glossary On
Versions: 1 2 3 4 5 6 7 8 9 10 11 12 13 14 15
000
FTUS43 KDTX 042006 AAA
TAFFNT
TAF AMD
KFNT 042006Z 0420/0518 14010KT P6SM -SHRA SCT025 OVC040
      TEMPO 0420/0422 4SM SHRA BKN025
     FM050000 08008KT P6SM BKN045
     FM050500 02007KT P6SM BKN060
     FM050900 01008KT P6SM SCT060
      TEMPO 0509/0513 BKN012
     FM051400 02013KT P6SM SCT035=

USA.gov is the U.S. government's official web portal to all federal, state and local government web resources and services.